Time;durP1;ratioP1;P1;durP2;ratioP2;P2;SDS_P1;SDS_P2;PMS_P1;PMS_P2;Temp;Humidity;BMP_temperature;BMP_pressure;BME280_temperature;BME280_humidity;BME280_pressure;Samples;Min_cycle;Max_cycle;Signal;HPM_P1;HPM_P2
2022/02/02 00:00:23;;;;;;;16.50;5.07;;;10.10;99.90;;;;;;5073280;28;20453;-64
2022/02/02 00:02:56;;;;;;;18.67;5.40;;;10.10;99.90;;;;;;5074855;28;20459;-64
2022/02/02 00:05:38;;;;;;;14.57;5.87;;;10.00;99.90;;;;;;5074463;28;20405;-64
2022/02/02 00:08:06;;;;;;;17.87;7.33;;;10.00;99.90;;;;;;5073303;28;20757;-70
2022/02/02 00:13:09;;;;;;;24.00;7.30;;;10.00;99.90;;;;;;5074856;28;20882;-64
2022/02/02 00:23:19;;;;;;;18.50;6.90;;;10.10;99.90;;;;;;5034610;28;20875;-64
2022/02/02 00:25:54;;;;;;;19.27;6.67;;;10.00;99.90;;;;;;5035174;28;20481;-64
2022/02/02 00:28:24;;;;;;;17.70;6.23;;;9.90;99.90;;;;;;5034136;28;20415;-64
2022/02/02 00:30:50;;;;;;;19.13;5.70;;;10.00;99.90;;;;;;5034857;28;20895;-64
2022/02/02 00:33:24;;;;;;;20.30;6.00;;;10.00;99.90;;;;;;5040273;28;20500;-64
2022/02/02 00:36:12;;;;;;;17.63;6.43;;;10.00;99.90;;;;;;5054694;28;20444;-64
2022/02/02 00:38:38;;;;;;;19.67;6.40;;;10.00;99.90;;;;;;5054398;28;20421;-64
2022/02/02 00:41:04;;;;;;;20.63;6.00;;;10.00;99.90;;;;;;5054461;28;20413;-64
2022/02/02 00:43:30;;;;;;;11.57;5.77;;;10.00;99.90;;;;;;5053899;28;20170;-64
2022/02/02 00:45:56;;;;;;;12.47;6.33;;;10.00;99.90;;;;;;5054611;28;20458;-64
2022/02/02 00:48:26;;;;;;;16.23;5.50;;;10.00;99.90;;;;;;5048685;28;20460;-64
2022/02/02 00:50:53;;;;;;;18.13;6.13;;;9.90;99.90;;;;;;5034464;28;20425;-64
2022/02/02 00:53:20;;;;;;;13.80;5.90;;;9.90;99.90;;;;;;5033546;28;20409;-64
2022/02/02 00:55:46;;;;;;;20.83;6.57;;;10.00;99.90;;;;;;5034525;28;20452;-64
2022/02/02 00:58:12;;;;;;;21.10;6.33;;;10.00;99.90;;;;;;5033491;28;20501;-65
2022/02/02 01:00:38;;;;;;;23.53;6.67;;;10.00;99.90;;;;;;5032827;28;20418;-64
2022/02/02 01:03:05;;;;;;;18.43;6.43;;;10.10;99.90;;;;;;5033961;28;20454;-64
2022/02/02 01:05:30;;;;;;;20.60;7.23;;;10.10;99.90;;;;;;5033590;28;20440;-64
2022/02/02 01:10:29;;;;;;;17.50;5.80;;;10.10;99.90;;;;;;5033886;28;20177;-65
2022/02/02 01:19:24;;;;;;;18.70;5.77;;;10.00;99.90;;;;;;5053132;28;20427;-64
2022/02/02 01:21:27;;;;;;;20.87;5.70;;;10.10;99.90;;;;;;5027284;28;20490;-65
2022/02/02 01:29:22;;;;;;;12.07;5.13;;;10.20;99.90;;;;;;5033022;28;20493;-65
2022/02/02 01:31:48;;;;;;;21.77;5.60;;;10.20;99.90;;;;;;5015883;28;20509;-64
2022/02/02 01:34:13;;;;;;;17.80;6.17;;;10.10;99.90;;;;;;5032853;28;20206;-65
2022/02/02 01:36:40;;;;;;;11.70;5.17;;;10.10;99.90;;;;;;5015847;28;20279;-64
2022/02/02 01:39:10;;;;;;;14.37;5.00;;;10.10;99.90;;;;;;5033296;28;20228;-64
2022/02/02 01:41:39;;;;;;;19.47;5.40;;;10.10;99.90;;;;;;5015821;28;20404;-64
2022/02/02 01:44:18;;;;;;;17.93;6.10;;;10.10;99.90;;;;;;5015660;28;20429;-64
2022/02/02 01:46:46;;;;;;;11.60;4.50;;;10.10;99.90;;;;;;5033568;28;21004;-64
2022/02/02 01:52:12;;;;;;;17.97;6.33;;;10.10;99.90;;;;;;5015585;28;20891;-64
2022/02/02 01:57:23;;;;;;;17.60;5.73;;;10.20;99.90;;;;;;5033436;28;20462;-64
2022/02/02 01:59:49;;;;;;;14.83;6.73;;;10.20;99.90;;;;;;5033219;28;20407;-64
2022/02/02 02:02:14;;;;;;;16.60;4.97;;;10.10;99.90;;;;;;5032527;28;20428;-65
2022/02/02 02:04:40;;;;;;;19.33;6.00;;;10.10;99.90;;;;;;5033752;28;20178;-64
2022/02/02 02:07:06;;;;;;;20.20;6.07;;;10.00;99.90;;;;;;5052851;28;20180;-65
2022/02/02 02:09:33;;;;;;;20.03;6.10;;;10.00;99.90;;;;;;5052079;28;20176;-64
2022/02/02 02:12:05;;;;;;;17.47;6.50;;;10.00;99.90;;;;;;5049492;28;20457;-64
2022/02/02 02:17:03;;;;;;;18.73;5.20;;;10.00;99.90;;;;;;5032972;28;20404;-64
2022/02/02 02:19:29;;;;;;;19.50;6.30;;;10.10;99.90;;;;;;5031996;28;20409;-64
2022/02/02 02:21:55;;;;;;;25.30;7.67;;;10.00;99.90;;;;;;5049126;28;21007;-64
2022/02/02 02:24:21;;;;;;;23.80;5.63;;;9.90;99.90;;;;;;5051792;28;20183;-65
2022/02/02 02:26:47;;;;;;;19.67;6.27;;;9.80;99.90;;;;;;5034474;28;20429;-64
2022/02/02 02:29:43;;;;;;;13.40;5.90;;;9.80;99.90;;;;;;5051961;28;20410;-70
2022/02/02 02:37:44;;;;;;;18.50;5.30;;;9.80;99.90;;;;;;5051663;28;20420;-64
2022/02/02 02:55:46;;;;;;;21.37;6.07;;;9.80;99.90;;;;;;5052371;28;20775;-64
2022/02/02 02:56:50;;;;;;;15.30;6.90;;;9.90;99.90;;;;;;5052373;28;20428;-64
2022/02/02 02:59:21;;;;;;;25.13;7.93;;;9.90;99.90;;;;;;5051567;28;20462;-71
2022/02/02 03:56:01;;;;;;;18.37;6.07;;;9.90;99.90;;;;;;5034639;28;20447;-64
2022/02/02 03:59:04;;;;;;;16.10;6.03;;;9.90;99.90;;;;;;5034563;28;20493;-64
2022/02/02 04:06:23;;;;;;;21.13;7.10;;;9.80;99.90;;;;;;5054660;28;20404;-70
2022/02/02 04:08:49;;;;;;;23.37;7.03;;;9.70;99.90;;;;;;5037152;28;20903;-64
2022/02/02 04:11:26;;;;;;;27.50;7.13;;;9.70;99.90;;;;;;5047759;28;20419;-64
2022/02/02 04:52:11;;;;;;;24.07;9.27;;;9.90;99.90;;;;;;5033992;28;20449;-64
2022/02/02 04:54:47;;;;;;;19.40;6.90;;;9.90;99.90;;;;;;5033427;28;20985;-64
2022/02/02 05:10:41;;;;;;;17.30;5.80;;;9.70;99.90;;;;;;5053052;28;20996;-65
2022/02/02 05:16:00;;;;;;;24.77;7.30;;;9.80;99.90;;;;;;5052019;28;20871;-64
2022/02/02 05:18:53;;;;;;;19.10;5.87;;;9.80;99.90;;;;;;5035408;28;20632;-64
2022/02/02 05:21:48;;;;;;;21.47;6.10;;;9.80;99.90;;;;;;5053329;28;20479;-65
2022/02/02 05:50:39;;;;;;;9.43;4.20;;;9.50;99.90;;;;;;5035424;28;20162;-64
2022/02/02 05:53:04;;;;;;;10.23;4.80;;;9.50;99.90;;;;;;5033323;28;20485;-64
2022/02/02 05:55:40;;;;;;;8.47;3.07;;;9.50;99.90;;;;;;5033508;28;20523;-64
2022/02/02 05:58:09;;;;;;;6.97;4.30;;;9.50;99.90;;;;;;5033983;28;20527;-64
2022/02/02 06:00:37;;;;;;;13.67;4.73;;;9.00;99.90;;;;;;5051701;28;20915;-64
2022/02/02 06:03:11;;;;;;;15.10;4.00;;;9.40;99.90;;;;;;5052984;28;20405;-64
2022/02/02 06:05:38;;;;;;;11.73;4.80;;;9.40;99.90;;;;;;5028882;28;20901;-64
2022/02/02 06:08:12;;;;;;;10.77;4.70;;;9.40;99.90;;;;;;5036386;28;20423;-64
2022/02/02 06:10:39;;;;;;;13.27;5.07;;;9.40;99.90;;;;;;5040665;28;20466;-64
2022/02/02 06:13:05;;;;;;;10.07;3.40;;;9.40;99.90;;;;;;5032943;28;20414;-64
2022/02/02 06:15:32;;;;;;;11.07;4.60;;;9.40;99.90;;;;;;5034457;28;20456;-64
2022/02/02 06:18:00;;;;;;;10.43;5.30;;;9.50;99.90;;;;;;5043135;28;20811;-64
2022/02/02 06:20:26;;;;;;;12.70;4.53;;;9.60;99.90;;;;;;5025474;28;20419;-70
2022/02/02 06:23:02;;;;;;;16.87;6.90;;;9.50;99.90;;;;;;5039935;28;20422;-64
2022/02/02 06:25:33;;;;;;;10.60;4.60;;;9.50;99.90;;;;;;5031884;28;20171;-70
2022/02/02 06:28:12;;;;;;;11.90;4.60;;;9.60;99.90;;;;;;5032872;28;20440;-64
2022/02/02 06:30:37;;;;;;;11.43;4.73;;;9.60;99.90;;;;;;5018518;28;20428;-64
2022/02/02 06:33:09;;;;;;;14.63;5.43;;;9.60;99.90;;;;;;5032486;28;20492;-64
2022/02/02 06:35:36;;;;;;;15.27;4.30;;;9.60;99.90;;;;;;5032091;28;20616;-64
2022/02/02 06:38:03;;;;;;;7.10;4.33;;;9.50;99.90;;;;;;4982070;28;20434;-64
2022/02/02 06:40:29;;;;;;;12.13;5.33;;;9.60;99.90;;;;;;5014083;28;20405;-70
2022/02/02 06:42:56;;;;;;;14.27;6.07;;;9.60;99.90;;;;;;5032652;28;20424;-64
2022/02/02 06:45:23;;;;;;;12.33;5.43;;;9.60;99.90;;;;;;5014504;28;20941;-64
2022/02/02 06:47:49;;;;;;;10.10;5.30;;;9.60;99.90;;;;;;5031518;28;20417;-64
2022/02/02 06:50:23;;;;;;;11.87;4.60;;;9.60;99.90;;;;;;5050788;28;20830;-64
2022/02/02 06:53:15;;;;;;;9.57;4.53;;;9.60;99.90;;;;;;5051230;28;20400;-64
2022/02/02 06:56:02;;;;;;;15.97;6.10;;;9.60;99.90;;;;;;5051557;28;20455;-64
2022/02/02 06:59:05;;;;;;;14.23;4.83;;;9.60;99.90;;;;;;5052273;28;20407;-71
2022/02/02 07:02:05;;;;;;;12.63;5.23;;;9.60;99.90;;;;;;5037667;28;20435;-70
2022/02/02 07:04:42;;;;;;;14.00;4.23;;;9.60;99.90;;;;;;5039301;28;20442;-65
2022/02/02 07:07:23;;;;;;;11.50;4.90;;;9.60;99.90;;;;;;5047177;28;20421;-65
2022/02/02 07:21:22;;;;;;;9.67;4.10;;;9.60;99.90;;;;;;5038501;28;20509;-65
2022/02/02 07:29:52;;;;;;;10.00;4.13;;;9.60;99.90;;;;;;4969548;28;20680;-65
2022/02/02 07:32:24;;;;;;;14.80;4.23;;;9.70;99.90;;;;;;5027317;28;20564;-66
2022/02/02 07:35:27;;;;;;;11.17;3.93;;;9.70;99.90;;;;;;5049043;28;20811;-66
2022/02/02 07:38:07;;;;;;;8.10;4.30;;;9.70;99.90;;;;;;5019886;28;20766;-65
2022/02/02 07:40:34;;;;;;;10.33;4.63;;;9.60;99.90;;;;;;5031646;28;20427;-65
2022/02/02 07:43:03;;;;;;;10.70;4.73;;;9.60;99.90;;;;;;5014320;28;20937;-66
2022/02/02 07:45:31;;;;;;;10.87;3.40;;;9.60;99.90;;;;;;5035896;28;20514;-66
2022/02/02 07:48:04;;;;;;;4.67;3.13;;;9.50;99.90;;;;;;5031963;28;20516;-65
2022/02/02 07:50:34;;;;;;;7.53;5.77;;;9.40;99.90;;;;;;5031910;28;20418;-70
2022/02/02 07:53:10;;;;;;;10.43;4.13;;;9.50;99.90;;;;;;5034688;28;20426;-65
2022/02/02 07:55:38;;;;;;;4.83;3.40;;;9.50;99.90;;;;;;5038256;28;20461;-66
2022/02/02 07:58:05;;;;;;;6.80;3.30;;;9.50;99.90;;;;;;5031838;28;20449;-65
2022/02/02 08:00:32;;;;;;;7.40;3.33;;;9.40;99.90;;;;;;5014314;28;20422;-66
2022/02/02 08:03:10;;;;;;;13.53;3.47;;;9.40;99.90;;;;;;5039911;28;20429;-66
2022/02/02 08:05:40;;;;;;;13.40;5.70;;;9.40;99.90;;;;;;5031382;28;20418;-68
2022/02/02 08:10:47;;;;;;;10.27;4.10;;;9.40;99.90;;;;;;5035164;28;20405;-67
2022/02/02 08:13:25;;;;;;;15.33;6.17;;;9.30;99.90;;;;;;5035650;28;20752;-66
2022/02/02 08:15:59;;;;;;;12.40;5.00;;;9.30;99.90;;;;;;5035123;28;20831;-66
2022/02/02 08:18:25;;;;;;;9.17;4.27;;;9.30;99.90;;;;;;5036852;28;20431;-67
2022/02/02 08:20:50;;;;;;;11.60;3.83;;;9.30;99.90;;;;;;5038416;28;20521;-66
2022/02/02 08:23:16;;;;;;;15.60;4.00;;;9.30;99.90;;;;;;5065461;28;20513;-66
2022/02/02 08:25:43;;;;;;;10.20;5.13;;;9.20;99.90;;;;;;5056042;28;20175;-66
2022/02/02 08:28:10;;;;;;;8.77;4.47;;;9.20;99.90;;;;;;5055209;28;20281;-66
2022/02/02 08:30:36;;;;;;;10.90;4.33;;;9.20;99.90;;;;;;5060402;28;20852;-70
2022/02/02 08:33:06;;;;;;;10.87;3.70;;;9.20;99.90;;;;;;5060299;28;20445;-65
2022/02/02 08:35:41;;;;;;;10.70;3.50;;;9.20;99.90;;;;;;5055726;28;20464;-65
2022/02/02 08:41:05;;;;;;;11.23;5.13;;;9.30;99.90;;;;;;5034508;28;20470;-66
2022/02/02 08:43:55;;;;;;;10.80;4.50;;;9.20;99.90;;;;;;5068556;28;20419;-66
2022/02/02 08:46:46;;;;;;;13.93;5.53;;;8.90;99.90;;;;;;5070345;28;20410;-66
2022/02/02 08:49:09;;;;;;;13.17;4.00;;;9.20;99.90;;;;;;5054102;28;20765;-66
2022/02/02 08:51:41;;;;;;;14.57;5.00;;;9.30;99.90;;;;;;5068584;28;20442;-66
2022/02/02 09:02:10;;;;;;;10.40;5.07;;;9.50;99.90;;;;;;5074905;28;20770;-66
2022/02/02 09:07:20;;;;;;;13.43;5.00;;;9.70;99.90;;;;;;5072617;28;20892;-65
2022/02/02 09:10:06;;;;;;;12.27;4.70;;;9.80;99.90;;;;;;5073925;28;20427;-65
2022/02/02 09:23:57;;;;;;;14.90;6.33;;;10.20;99.90;;;;;;5034037;28;20427;-66
2022/02/02 09:32:20;;;;;;;14.67;5.00;;;10.20;99.90;;;;;;5053087;28;20418;-66
2022/02/02 09:34:44;;;;;;;13.63;4.20;;;10.10;99.90;;;;;;5034621;28;20489;-66
2022/02/02 09:37:10;;;;;;;13.40;5.43;;;10.10;99.90;;;;;;5034691;28;20436;-66
2022/02/02 09:39:43;;;;;;;14.90;5.63;;;10.00;99.90;;;;;;5033653;28;20184;-72
2022/02/02 09:42:13;;;;;;;11.73;6.13;;;10.00;99.90;;;;;;5034119;28;20165;-65
2022/02/02 09:44:42;;;;;;;14.53;6.60;;;10.00;99.90;;;;;;5045575;28;20426;-66
2022/02/02 09:52:19;;;;;;;12.93;6.17;;;10.10;99.90;;;;;;5041887;28;20217;-65
2022/02/02 09:54:59;;;;;;;10.93;5.80;;;10.20;99.90;;;;;;5052929;28;20451;-66
2022/02/02 10:05:49;;;;;;;15.53;5.23;;;10.40;99.90;;;;;;5042811;28;20426;-66
2022/02/02 10:13:52;;;;;;;7.70;4.17;;;10.40;99.90;;;;;;5032812;28;20431;-69
2022/02/02 10:16:25;;;;;;;16.20;4.07;;;10.40;99.90;;;;;;5016413;28;20461;-66
2022/02/02 10:18:51;;;;;;;10.80;4.77;;;10.50;99.90;;;;;;5032123;28;20912;-65
2022/02/02 10:21:32;;;;;;;15.80;4.40;;;10.50;99.90;;;;;;5033294;28;20472;-65
2022/02/02 10:23:58;;;;;;;8.83;6.00;;;10.50;99.90;;;;;;5034517;28;20987;-66
2022/02/02 10:26:24;;;;;;;16.60;5.70;;;10.60;99.90;;;;;;5040880;28;20520;-67
2022/02/02 10:28:50;;;;;;;13.10;4.60;;;10.90;99.90;;;;;;5044214;28;20192;-67
2022/02/02 10:31:17;;;;;;;13.80;6.27;;;11.00;99.70;;;;;;5052782;28;20673;-69
2022/02/02 10:33:43;;;;;;;11.20;3.53;;;11.20;99.90;;;;;;5034576;28;20447;-67
2022/02/02 10:36:20;;;;;;;15.17;7.47;;;11.30;99.90;;;;;;5036036;28;20562;-66
2022/02/02 10:39:08;;;;;;;12.03;5.30;;;11.40;99.90;;;;;;5031970;28;20219;-66
2022/02/02 10:41:58;;;;;;;14.77;6.03;;;11.60;99.90;;;;;;5025169;28;20428;-67
2022/02/02 10:44:39;;;;;;;11.33;5.03;;;11.90;99.20;;;;;;5032150;28;20762;-65
2022/02/02 10:47:37;;;;;;;7.67;3.90;;;12.10;99.00;;;;;;5031743;28;20401;-66
2022/02/02 10:50:40;;;;;;;13.30;4.13;;;12.30;97.60;;;;;;5030529;28;20425;-66
2022/02/02 11:01:35;;;;;;;11.27;4.87;;;12.90;94.90;;;;;;5039818;28;20420;-66
2022/02/02 11:06:45;;;;;;;10.70;4.07;;;13.50;93.60;;;;;;5030429;28;20520;-67
2022/02/02 11:09:14;;;;;;;12.80;6.37;;;13.80;91.80;;;;;;5032074;28;20914;-66
2022/02/02 11:11:45;;;;;;;7.67;3.70;;;14.00;92.10;;;;;;5032221;28;20192;-70
2022/02/02 11:14:42;;;;;;;8.07;5.00;;;14.30;90.20;;;;;;5014467;28;20404;-66
2022/02/02 11:17:32;;;;;;;13.00;6.60;;;14.40;90.70;;;;;;5025429;28;20988;-66
2022/02/02 11:20:01;;;;;;;10.90;4.57;;;14.40;90.20;;;;;;5036694;28;20455;-66
2022/02/02 11:22:32;;;;;;;8.90;6.97;;;14.40;89.50;;;;;;5037699;28;20545;-66
2022/02/02 11:25:02;;;;;;;8.57;6.10;;;14.40;89.50;;;;;;5032807;28;20406;-66
2022/02/02 11:27:49;;;;;;;14.33;6.10;;;14.30;86.60;;;;;;5051956;28;20416;-66
2022/02/02 11:30:24;;;;;;;11.27;5.00;;;13.90;88.00;;;;;;5049996;28;20424;-66
2022/02/02 11:33:01;;;;;;;11.53;4.93;;;13.70;89.90;;;;;;5051534;28;20882;-66
2022/02/02 11:35:58;;;;;;;8.47;4.67;;;13.60;90.90;;;;;;5029855;28;20552;-65
2022/02/02 11:38:25;;;;;;;9.43;5.17;;;13.40;89.40;;;;;;5043921;28;20875;-66
2022/02/02 11:44:04;;;;;;;7.43;3.97;;;13.30;91.30;;;;;;5044341;28;20890;-69
2022/02/02 11:49:51;;;;;;;8.13;5.07;;;13.40;90.60;;;;;;5035004;28;20411;-66
2022/02/02 11:52:44;;;;;;;8.57;3.97;;;13.60;90.20;;;;;;5035969;28;20443;-66
2022/02/02 11:55:13;;;;;;;6.80;5.40;;;13.80;89.00;;;;;;5034727;28;20487;-66
2022/02/02 11:58:01;;;;;;;7.57;5.73;;;13.90;88.30;;;;;;5035450;28;20423;-66
2022/02/02 12:00:36;;;;;;;8.70;4.60;;;13.70;89.60;;;;;;5052638;28;20416;-66
2022/02/02 12:08:45;;;;;;;13.60;4.80;;;13.60;88.30;;;;;;5050262;28;20430;-66
2022/02/02 12:20:22;;;;;;;5.20;3.93;;;12.90;90.80;;;;;;5035785;28;20540;-67
2022/02/02 12:53:35;;;;;;;6.93;4.20;;;12.00;93.60;;;;;;5028373;28;20507;-66
2022/02/02 12:56:25;;;;;;;12.20;4.33;;;11.90;94.70;;;;;;5054056;28;20557;-66
2022/02/02 12:59:12;;;;;;;12.50;5.23;;;11.80;94.70;;;;;;5046124;28;20412;-66
2022/02/02 13:01:38;;;;;;;9.70;3.53;;;11.90;95.00;;;;;;5048689;28;20890;-66
2022/02/02 13:04:08;;;;;;;8.03;4.70;;;11.90;94.80;;;;;;5035412;28;20469;-67
2022/02/02 13:06:40;;;;;;;11.30;4.63;;;11.90;94.40;;;;;;5037836;28;20198;-66
2022/02/02 13:09:06;;;;;;;9.50;5.27;;;11.90;94.50;;;;;;5039875;28;20421;-66
2022/02/02 13:11:34;;;;;;;9.03;4.30;;;11.90;94.70;;;;;;5041575;28;20424;-66
2022/02/02 13:14:05;;;;;;;9.37;5.50;;;11.90;94.00;;;;;;5035561;28;20183;-66
2022/02/02 13:16:31;;;;;;;10.80;4.67;;;12.00;95.00;;;;;;5044624;28;20456;-68
2022/02/02 13:19:12;;;;;;;9.00;5.20;;;12.10;95.50;;;;;;5011659;28;20936;-67
2022/02/02 13:21:45;;;;;;;12.20;4.20;;;12.20;95.10;;;;;;5048535;28;21002;-66
2022/02/02 13:24:19;;;;;;;8.37;3.50;;;12.30;94.90;;;;;;5037013;28;20516;-67
2022/02/02 13:26:57;;;;;;;9.70;3.90;;;12.40;94.40;;;;;;5034309;28;20400;-66
2022/02/02 13:31:58;;;;;;;7.63;4.50;;;12.50;93.40;;;;;;5051661;28;20422;-67
2022/02/02 13:34:42;;;;;;;7.87;4.33;;;12.60;94.30;;;;;;5050590;28;20422;-67
2022/02/02 13:58:48;;;;;;;19.77;5.40;;;12.10;94.10;;;;;;5032954;28;20412;-67
2022/02/02 14:09:12;;;;;;;9.00;4.60;;;12.00;95.40;;;;;;5052585;28;20738;-66
2022/02/02 14:33:25;;;;;;;6.20;3.57;;;11.60;94.40;;;;;;5038995;28;20458;-66
2022/02/02 14:35:56;;;;;;;10.93;3.97;;;11.60;95.10;;;;;;5034277;28;20456;-67
2022/02/02 14:38:22;;;;;;;9.40;5.07;;;11.50;95.70;;;;;;5032167;28;20416;-66
2022/02/02 14:43:39;;;;;;;6.83;4.30;;;11.40;96.40;;;;;;5031448;28;20413;-67
2022/02/02 14:46:09;;;;;;;11.80;3.80;;;11.40;95.10;;;;;;5032453;28;20477;-69
2022/02/02 14:48:41;;;;;;;11.20;4.53;;;11.40;94.40;;;;;;5035265;28;20427;-67
2022/02/02 14:51:21;;;;;;;11.30;4.00;;;11.50;94.80;;;;;;5032290;28;20951;-66
2022/02/02 14:54:07;;;;;;;9.13;4.70;;;11.50;95.20;;;;;;5041214;28;20446;-66
2022/02/02 15:29:56;;;;;;;9.20;4.13;;;11.40;93.70;;;;;;5055599;28;20405;-66
2022/02/02 15:32:22;;;;;;;6.57;3.73;;;11.40;93.20;;;;;;5021643;28;20834;-66
2022/02/02 15:34:52;;;;;;;8.97;2.90;;;11.30;93.30;;;;;;5056035;28;20558;-66
2022/02/02 15:37:30;;;;;;;8.40;3.83;;;11.30;93.50;;;;;;5055387;28;20202;-67
2022/02/02 15:42:49;;;;;;;7.60;3.97;;;11.30;93.80;;;;;;5056281;28;20449;-67
2022/02/02 15:58:48;;;;;;;8.20;3.63;;;11.10;93.80;;;;;;5055922;28;20491;-66
2022/02/02 16:04:15;;;;;;;10.50;4.27;;;11.10;93.40;;;;;;5015612;28;20512;-67
2022/02/02 16:06:41;;;;;;;15.13;5.10;;;11.00;93.60;;;;;;5026482;28;20933;-66
2022/02/02 16:09:29;;;;;;;7.60;3.47;;;11.00;93.70;;;;;;5050351;28;20417;-67
2022/02/02 16:12:08;;;;;;;5.50;3.50;;;11.00;93.30;;;;;;5043768;28;20505;-67
2022/02/02 16:14:41;;;;;;;8.37;3.07;;;11.10;93.50;;;;;;5045483;28;20477;-66
2022/02/02 16:17:37;;;;;;;9.60;4.50;;;11.00;93.40;;;;;;5034952;28;20451;-66
2022/02/02 16:36:34;;;;;;;9.23;5.57;;;10.80;94.10;;;;;;5034806;28;20481;-65
2022/02/02 16:39:16;;;;;;;131.53;80.03;;;10.80;94.30;;;;;;5025696;28;20751;-66
2022/02/02 16:44:27;;;;;;;19.73;7.73;;;10.80;95.30;;;;;;5048016;28;20423;-66
2022/02/02 16:46:53;;;;;;;10.27;5.03;;;10.80;95.60;;;;;;5036933;28;20432;-66
2022/02/02 16:49:20;;;;;;;8.30;4.80;;;10.80;95.90;;;;;;5035647;28;21244;-67
2022/02/02 16:51:45;;;;;;;10.73;5.30;;;10.70;95.70;;;;;;5054094;28;20463;-66
2022/02/02 16:54:20;;;;;;;9.07;4.77;;;10.70;96.10;;;;;;5052231;28;20464;-66
2022/02/02 17:24:48;;;;;;;10.80;6.60;;;10.50;96.70;;;;;;5046694;28;20426;-66
2022/02/02 17:37:57;;;;;;;10.33;5.40;;;10.30;97.50;;;;;;5053585;28;20405;-65
2022/02/02 17:44:08;;;;;;;9.73;6.90;;;10.20;97.70;;;;;;5039316;28;20418;-66
2022/02/02 18:02:48;;;;;;;15.83;10.50;;;10.00;98.80;;;;;;5036453;28;20421;-65
2022/02/02 18:20:51;;;;;;;28.23;10.30;;;9.90;99.20;;;;;;5041324;28;20421;-65
2022/02/02 18:28:42;;;;;;;14.40;9.57;;;10.00;99.10;;;;;;5034818;28;20409;-66
2022/02/02 18:33:52;;;;;;;16.37;10.53;;;9.90;99.70;;;;;;5052738;28;20401;-66
2022/02/02 18:36:30;;;;;;;18.53;10.00;;;9.90;99.70;;;;;;5033944;28;20559;-67
2022/02/02 18:44:48;;;;;;;17.30;11.20;;;9.70;99.40;;;;;;5051407;28;20423;-72
2022/02/02 18:49:46;;;;;;;17.43;10.90;;;9.60;99.80;;;;;;5031729;28;20421;-65
2022/02/02 18:52:46;;;;;;;14.33;10.67;;;9.50;99.90;;;;;;5013911;28;20401;-66
2022/02/02 18:55:31;;;;;;;13.00;9.70;;;9.60;99.90;;;;;;5031653;28;20454;-65
2022/02/02 19:00:43;;;;;;;14.50;9.60;;;9.50;99.90;;;;;;5031804;28;20414;-66
2022/02/02 19:03:34;;;;;;;16.87;11.63;;;9.50;99.90;;;;;;5031544;28;20397;-66
2022/02/02 19:53:09;;;;;;;19.97;10.50;;;9.20;99.90;;;;;;5051271;28;20413;-64
2022/02/02 19:55:40;;;;;;;15.50;13.53;;;9.20;99.90;;;;;;5050468;28;20461;-65
2022/02/02 20:11:35;;;;;;;11.43;9.57;;;9.10;99.90;;;;;;5053617;28;20420;-65
2022/02/02 20:14:01;;;;;;;18.63;11.40;;;9.10;99.90;;;;;;5037294;28;20866;-64
2022/02/02 20:16:27;;;;;;;13.17;11.43;;;9.20;99.90;;;;;;5045990;28;20487;-65
2022/02/02 20:18:56;;;;;;;18.40;11.87;;;9.10;99.90;;;;;;5036852;28;20428;-65
2022/02/02 20:21:23;;;;;;;18.80;10.23;;;9.10;99.90;;;;;;5046048;28;20230;-66
2022/02/02 20:23:50;;;;;;;21.07;11.47;;;9.10;99.90;;;;;;5040847;28;20503;-65
2022/02/02 20:26:18;;;;;;;15.23;10.90;;;9.10;99.90;;;;;;5042065;28;20460;-65
2022/02/02 20:28:45;;;;;;;13.07;10.77;;;9.20;99.90;;;;;;5034692;28;20410;-65
2022/02/02 20:31:12;;;;;;;16.47;10.40;;;9.20;99.90;;;;;;5047521;28;20416;-71
2022/02/02 20:33:38;;;;;;;24.47;12.10;;;9.20;99.90;;;;;;5036983;28;20424;-65
2022/02/02 20:36:04;;;;;;;16.87;11.80;;;9.30;99.90;;;;;;5054710;28;20869;-65
2022/02/02 20:38:30;;;;;;;21.17;12.37;;;9.30;99.90;;;;;;5049005;28;21091;-65
2022/02/02 20:40:56;;;;;;;18.93;10.13;;;9.30;99.90;;;;;;5019198;28;20433;-65
2022/02/02 20:44:01;;;;;;;17.10;10.40;;;9.40;99.90;;;;;;5039465;28;20416;-65
2022/02/02 20:46:32;;;;;;;17.53;10.90;;;9.40;99.90;;;;;;5033145;28;20195;-65
2022/02/02 21:08:18;;;;;;;17.00;10.83;;;9.50;99.90;;;;;;5033785;28;20411;-65
2022/02/02 21:10:40;;;;;;;13.57;8.97;;;9.60;99.90;;;;;;5052447;28;20426;-65
2022/02/02 21:15:51;;;;;;;14.07;9.70;;;9.60;99.90;;;;;;5040959;28;20457;-65
2022/02/02 21:18:21;;;;;;;15.93;10.60;;;9.60;99.90;;;;;;5032279;28;20423;-65
2022/02/02 21:21:00;;;;;;;18.73;10.60;;;9.60;99.90;;;;;;5033150;28;20458;-65
2022/02/02 21:24:43;;;;;;;15.23;11.53;;;9.70;99.90;;;;;;5032766;28;20497;-65
2022/02/02 21:26:49;;;;;;;16.47;10.50;;;9.60;99.90;;;;;;5033310;28;20433;-65
2022/02/02 21:29:16;;;;;;;15.30;10.00;;;9.70;99.90;;;;;;5048528;28;20421;-66
2022/02/02 21:31:41;;;;;;;12.93;10.23;;;9.70;99.90;;;;;;5037227;28;20468;-65
2022/02/02 21:34:07;;;;;;;18.60;12.10;;;9.70;99.90;;;;;;5033031;28;20496;-65
2022/02/02 21:36:34;;;;;;;17.33;10.30;;;9.70;99.90;;;;;;5014282;28;20232;-65
2022/02/02 21:39:06;;;;;;;18.30;12.23;;;9.70;99.90;;;;;;5015516;28;20532;-65
2022/02/02 21:41:35;;;;;;;20.40;12.83;;;9.70;99.90;;;;;;5032060;28;20503;-65
2022/02/02 21:44:03;;;;;;;27.70;13.67;;;9.70;99.90;;;;;;5033190;28;20537;-67
2022/02/02 21:46:29;;;;;;;17.30;12.27;;;9.80;99.90;;;;;;5042385;28;20478;-65
2022/02/02 21:48:59;;;;;;;20.93;13.53;;;9.80;99.90;;;;;;5046490;28;20442;-65
2022/02/02 21:51:30;;;;;;;19.90;13.33;;;9.80;99.90;;;;;;5014225;28;20504;-65
2022/02/02 21:53:57;;;;;;;23.20;13.77;;;9.80;99.90;;;;;;5032569;28;20409;-64
2022/02/02 21:56:23;;;;;;;22.80;13.90;;;9.80;99.90;;;;;;5050263;28;20461;-65
2022/02/02 21:58:49;;;;;;;268.80;153.50;;;9.80;99.90;;;;;;5041834;28;20429;-65
2022/02/02 22:01:19;;;;;;;196.97;113.07;;;9.80;99.90;;;;;;5014673;28;20469;-66
2022/02/02 22:03:44;;;;;;;32.50;19.03;;;9.90;99.90;;;;;;5033276;28;20419;-64
2022/02/02 22:06:10;;;;;;;22.97;14.63;;;9.90;99.90;;;;;;5015337;28;20443;-70
2022/02/02 22:08:36;;;;;;;25.63;14.27;;;9.90;99.90;;;;;;5032982;28;21051;-65
2022/02/02 22:11:02;;;;;;;23.40;13.40;;;9.90;99.90;;;;;;5015326;28;20417;-65
2022/02/02 22:13:40;;;;;;;21.93;13.60;;;9.90;99.90;;;;;;5032304;28;20178;-65
2022/02/02 22:16:11;;;;;;;22.00;12.20;;;9.90;99.90;;;;;;5032829;28;20450;-64
2022/02/02 22:18:38;;;;;;;21.70;12.00;;;10.00;99.90;;;;;;5014796;28;20489;-65
2022/02/02 22:21:04;;;;;;;27.43;13.90;;;10.00;99.90;;;;;;5032870;28;20520;-65
2022/02/02 22:23:30;;;;;;;29.60;13.77;;;10.00;99.90;;;;;;5031872;28;20409;-64
2022/02/02 22:25:57;;;;;;;21.27;12.70;;;10.00;99.90;;;;;;5048441;28;20452;-64
2022/02/02 22:28:24;;;;;;;26.57;14.20;;;10.00;99.90;;;;;;5017194;28;20747;-65
2022/02/02 22:30:49;;;;;;;18.10;12.90;;;10.00;99.90;;;;;;5034882;28;20921;-65
2022/02/02 22:33:15;;;;;;;22.87;13.60;;;10.10;99.90;;;;;;5034080;28;20453;-71
2022/02/02 22:35:41;;;;;;;20.33;13.00;;;10.10;99.90;;;;;;5020090;28;20237;-65
2022/02/02 22:38:08;;;;;;;31.30;15.73;;;10.10;99.90;;;;;;5032675;28;20660;-65
2022/02/02 22:40:34;;;;;;;19.67;13.80;;;10.10;99.90;;;;;;5031595;28;20415;-65
2022/02/02 22:43:00;;;;;;;19.80;11.63;;;10.10;99.90;;;;;;5048053;28;20433;-65
2022/02/02 22:45:27;;;;;;;25.63;12.93;;;10.10;99.90;;;;;;5051699;28;20410;-65
2022/02/02 22:47:53;;;;;;;20.07;12.60;;;10.10;99.90;;;;;;5052534;28;20174;-64
2022/02/02 22:50:20;;;;;;;25.90;13.63;;;10.20;99.90;;;;;;5051588;28;20428;-65
2022/02/02 22:52:50;;;;;;;18.07;12.37;;;10.20;99.90;;;;;;5038527;28;20191;-65
2022/02/02 22:55:17;;;;;;;26.40;13.97;;;10.30;99.90;;;;;;5031883;28;20998;-71
2022/02/02 22:57:43;;;;;;;18.30;12.90;;;10.20;99.90;;;;;;5032460;28;20414;-65
2022/02/02 23:00:14;;;;;;;17.10;12.63;;;10.20;99.90;;;;;;5032313;28;20414;-64
2022/02/02 23:02:58;;;;;;;17.37;13.20;;;10.30;99.90;;;;;;5042854;28;20463;-65
2022/02/02 23:05:33;;;;;;;17.90;12.20;;;10.30;99.90;;;;;;5051723;28;20404;-65
2022/02/02 23:08:00;;;;;;;19.17;12.80;;;10.30;99.90;;;;;;5052089;28;20389;-65
2022/02/02 23:10:26;;;;;;;17.10;12.60;;;10.40;99.90;;;;;;5033438;28;20445;-65
2022/02/02 23:12:52;;;;;;;19.87;12.53;;;10.40;99.90;;;;;;5038414;28;20483;-67
2022/02/02 23:16:04;;;;;;;15.10;12.07;;;10.40;99.90;;;;;;5013515;28;20489;-68
2022/02/02 23:18:23;;;;;;;14.47;10.90;;;10.40;99.90;;;;;;5023974;28;20216;-65
2022/02/02 23:21:00;;;;;;;13.13;11.03;;;10.40;99.90;;;;;;5038119;28;20471;-65
2022/02/02 23:23:30;;;;;;;14.63;10.53;;;10.40;99.90;;;;;;5051239;28;20420;-64
2022/02/02 23:25:58;;;;;;;15.70;11.50;;;10.50;99.90;;;;;;5051998;28;20535;-65
2022/02/02 23:28:29;;;;;;;18.30;12.33;;;10.50;99.90;;;;;;5051138;28;20417;-65
2022/02/02 23:30:56;;;;;;;19.40;12.83;;;10.50;99.90;;;;;;5051271;28;20412;-64
2022/02/02 23:33:22;;;;;;;19.67;12.97;;;10.50;99.90;;;;;;5050996;28;20505;-65